sensor_id;sensor_type;location;lat;lon;timestamp;temperature;humidity
35325;DHT22;35135;47.510;19.036;2022-10-16T00:01:08;22.70;59.70
35325;DHT22;35135;47.510;19.036;2022-10-16T00:03:34;22.70;59.70
35325;DHT22;35135;47.510;19.036;2022-10-16T00:06:00;22.70;59.70
35325;DHT22;35135;47.510;19.036;2022-10-16T00:08:26;22.70;59.70
35325;DHT22;35135;47.510;19.036;2022-10-16T00:10:52;22.70;59.70
35325;DHT22;35135;47.510;19.036;2022-10-16T00:13:17;22.70;59.70
35325;DHT22;35135;47.510;19.036;2022-10-16T00:15:44;22.70;59.70
35325;DHT22;35135;47.510;19.036;2022-10-16T00:18:11;22.70;59.70
35325;DHT22;35135;47.510;19.036;2022-10-16T00:20:37;22.70;59.70
35325;DHT22;35135;47.510;19.036;2022-10-16T00:23:03;22.70;59.70
35325;DHT22;35135;47.510;19.036;2022-10-16T00:25:29;22.70;59.70
35325;DHT22;35135;47.510;19.036;2022-10-16T00:27:58;22.70;59.60
35325;DHT22;35135;47.510;19.036;2022-10-16T00:30:23;22.70;59.60
35325;DHT22;35135;47.510;19.036;2022-10-16T00:32:49;22.70;59.60
35325;DHT22;35135;47.510;19.036;2022-10-16T00:35:14;22.70;59.60
35325;DHT22;35135;47.510;19.036;2022-10-16T00:37:40;22.70;59.60
35325;DHT22;35135;47.510;19.036;2022-10-16T00:40:06;22.70;59.60
35325;DHT22;35135;47.510;19.036;2022-10-16T00:42:31;22.70;59.60
35325;DHT22;35135;47.510;19.036;2022-10-16T00:44:57;22.70;59.50
35325;DHT22;35135;47.510;19.036;2022-10-16T00:47:29;22.70;59.50
35325;DHT22;35135;47.510;19.036;2022-10-16T00:49:58;22.70;59.50
35325;DHT22;35135;47.510;19.036;2022-10-16T00:52:24;22.60;59.50
35325;DHT22;35135;47.510;19.036;2022-10-16T00:54:49;22.60;59.50
35325;DHT22;35135;47.510;19.036;2022-10-16T00:57:16;22.70;59.50
35325;DHT22;35135;47.510;19.036;2022-10-16T00:59:41;22.70;59.50
35325;DHT22;35135;47.510;19.036;2022-10-16T01:02:09;22.70;59.50
35325;DHT22;35135;47.510;19.036;2022-10-16T01:04:36;22.70;59.50
35325;DHT22;35135;47.510;19.036;2022-10-16T01:07:14;22.60;59.40
35325;DHT22;35135;47.510;19.036;2022-10-16T01:25:30;22.60;59.40
35325;DHT22;35135;47.510;19.036;2022-10-16T01:27:57;22.60;59.40
35325;DHT22;35135;47.510;19.036;2022-10-16T01:30:26;22.60;59.40
35325;DHT22;35135;47.510;19.036;2022-10-16T01:32:59;22.60;59.40
35325;DHT22;35135;47.510;19.036;2022-10-16T01:35:32;22.60;59.40
35325;DHT22;35135;47.510;19.036;2022-10-16T01:38:04;22.60;59.50
35325;DHT22;35135;47.510;19.036;2022-10-16T01:40:32;22.60;59.40
35325;DHT22;35135;47.510;19.036;2022-10-16T01:43:06;22.60;59.40
35325;DHT22;35135;47.510;19.036;2022-10-16T01:45:34;22.60;59.40
35325;DHT22;35135;47.510;19.036;2022-10-16T01:48:00;22.60;59.40
35325;DHT22;35135;47.510;19.036;2022-10-16T01:50:29;22.60;59.40
35325;DHT22;35135;47.510;19.036;2022-10-16T01:52:56;22.60;59.40
35325;DHT22;35135;47.510;19.036;2022-10-16T01:55:25;22.60;59.40
35325;DHT22;35135;47.510;19.036;2022-10-16T01:57:52;22.60;59.40
35325;DHT22;35135;47.510;19.036;2022-10-16T02:00:19;22.60;59.40
35325;DHT22;35135;47.510;19.036;2022-10-16T02:02:46;22.60;59.40
35325;DHT22;35135;47.510;19.036;2022-10-16T02:05:25;22.60;59.30
35325;DHT22;35135;47.510;19.036;2022-10-16T02:07:52;22.60;59.30
35325;DHT22;35135;47.510;19.036;2022-10-16T02:10:18;22.60;59.30
35325;DHT22;35135;47.510;19.036;2022-10-16T02:12:49;22.60;59.30
35325;DHT22;35135;47.510;19.036;2022-10-16T02:15:15;22.60;59.30
35325;DHT22;35135;47.510;19.036;2022-10-16T02:17:41;22.60;59.30
35325;DHT22;35135;47.510;19.036;2022-10-16T02:20:06;22.60;59.30
35325;DHT22;35135;47.510;19.036;2022-10-16T02:25:03;22.50;59.30
35325;DHT22;35135;47.510;19.036;2022-10-16T02:27:34;22.50;59.20
35325;DHT22;35135;47.510;19.036;2022-10-16T02:30:10;22.50;59.20
35325;DHT22;35135;47.510;19.036;2022-10-16T02:32:39;22.50;59.20
35325;DHT22;35135;47.510;19.036;2022-10-16T02:35:06;22.50;59.20
35325;DHT22;35135;47.510;19.036;2022-10-16T02:37:32;22.50;59.20
35325;DHT22;35135;47.510;19.036;2022-10-16T02:39:58;22.50;59.20
35325;DHT22;35135;47.510;19.036;2022-10-16T02:42:27;22.50;59.20
35325;DHT22;35135;47.510;19.036;2022-10-16T02:44:53;22.50;59.20
35325;DHT22;35135;47.510;19.036;2022-10-16T02:47:18;22.50;59.20
35325;DHT22;35135;47.510;19.036;2022-10-16T02:49:44;22.50;59.20
35325;DHT22;35135;47.510;19.036;2022-10-16T02:52:09;22.50;59.20
35325;DHT22;35135;47.510;19.036;2022-10-16T02:54:35;22.50;59.20
35325;DHT22;35135;47.510;19.036;2022-10-16T02:57:00;22.50;59.20
35325;DHT22;35135;47.510;19.036;2022-10-16T02:59:26;22.50;59.20
35325;DHT22;35135;47.510;19.036;2022-10-16T03:01:51;22.50;59.20
35325;DHT22;35135;47.510;19.036;2022-10-16T03:04:17;22.50;59.20
35325;DHT22;35135;47.510;19.036;2022-10-16T03:06:42;22.50;59.20
35325;DHT22;35135;47.510;19.036;2022-10-16T03:09:08;22.50;59.10
35325;DHT22;35135;47.510;19.036;2022-10-16T03:11:33;22.50;59.10
35325;DHT22;35135;47.510;19.036;2022-10-16T03:13:59;22.50;59.20
35325;DHT22;35135;47.510;19.036;2022-10-16T03:16:24;22.50;59.10
35325;DHT22;35135;47.510;19.036;2022-10-16T03:18:50;22.50;59.10
35325;DHT22;35135;47.510;19.036;2022-10-16T03:21:16;22.50;59.10
35325;DHT22;35135;47.510;19.036;2022-10-16T03:23:42;22.50;59.10
35325;DHT22;35135;47.510;19.036;2022-10-16T03:26:07;22.50;59.10
35325;DHT22;35135;47.510;19.036;2022-10-16T03:28:32;22.50;59.10
35325;DHT22;35135;47.510;19.036;2022-10-16T03:30:58;22.50;59.10
35325;DHT22;35135;47.510;19.036;2022-10-16T03:33:23;22.40;59.10
35325;DHT22;35135;47.510;19.036;2022-10-16T03:35:52;22.40;59.00
35325;DHT22;35135;47.510;19.036;2022-10-16T03:38:18;22.40;59.10
35325;DHT22;35135;47.510;19.036;2022-10-16T03:40:44;22.40;59.00
35325;DHT22;35135;47.510;19.036;2022-10-16T03:43:09;22.40;59.10
35325;DHT22;35135;47.510;19.036;2022-10-16T03:45:35;22.40;59.10
35325;DHT22;35135;47.510;19.036;2022-10-16T03:48:00;22.40;59.00
35325;DHT22;35135;47.510;19.036;2022-10-16T03:50:27;22.40;59.00
35325;DHT22;35135;47.510;19.036;2022-10-16T03:52:53;22.40;59.00
35325;DHT22;35135;47.510;19.036;2022-10-16T03:55:18;22.40;59.00
35325;DHT22;35135;47.510;19.036;2022-10-16T03:57:44;22.40;59.00
35325;DHT22;35135;47.510;19.036;2022-10-16T04:00:10;22.40;59.00
35325;DHT22;35135;47.510;19.036;2022-10-16T04:02:35;22.40;59.00
35325;DHT22;35135;47.510;19.036;2022-10-16T04:05:01;22.40;59.00
35325;DHT22;35135;47.510;19.036;2022-10-16T04:07:26;22.40;59.00
35325;DHT22;35135;47.510;19.036;2022-10-16T04:09:52;22.40;59.00
35325;DHT22;35135;47.510;19.036;2022-10-16T04:12:18;22.40;59.00
35325;DHT22;35135;47.510;19.036;2022-10-16T04:14:43;22.40;59.00
35325;DHT22;35135;47.510;19.036;2022-10-16T04:17:09;22.40;59.00
35325;DHT22;35135;47.510;19.036;2022-10-16T04:19:34;22.40;59.00
35325;DHT22;35135;47.510;19.036;2022-10-16T04:22:00;22.40;59.00
35325;DHT22;35135;47.510;19.036;2022-10-16T04:24:25;22.40;59.00
35325;DHT22;35135;47.510;19.036;2022-10-16T04:26:51;22.40;59.00
35325;DHT22;35135;47.510;19.036;2022-10-16T04:29:16;22.40;59.00
35325;DHT22;35135;47.510;19.036;2022-10-16T04:31:42;22.40;59.00
35325;DHT22;35135;47.510;19.036;2022-10-16T04:34:07;22.40;59.00
35325;DHT22;35135;47.510;19.036;2022-10-16T04:36:33;22.40;59.00
35325;DHT22;35135;47.510;19.036;2022-10-16T04:38:58;22.40;59.50
35325;DHT22;35135;47.510;19.036;2022-10-16T04:41:24;22.40;58.90
35325;DHT22;35135;47.510;19.036;2022-10-16T04:43:49;22.40;58.90
35325;DHT22;35135;47.510;19.036;2022-10-16T04:46:15;22.30;58.90
35325;DHT22;35135;47.510;19.036;2022-10-16T04:48:40;22.30;58.90
35325;DHT22;35135;47.510;19.036;2022-10-16T04:51:06;22.30;58.90
35325;DHT22;35135;47.510;19.036;2022-10-16T04:53:31;22.30;58.90
35325;DHT22;35135;47.510;19.036;2022-10-16T04:55:57;22.30;58.90
35325;DHT22;35135;47.510;19.036;2022-10-16T04:58:22;22.30;58.90
35325;DHT22;35135;47.510;19.036;2022-10-16T05:00:48;22.30;58.90
35325;DHT22;35135;47.510;19.036;2022-10-16T05:03:13;22.30;58.90
35325;DHT22;35135;47.510;19.036;2022-10-16T05:05:45;22.30;58.90
35325;DHT22;35135;47.510;19.036;2022-10-16T05:08:12;22.30;58.90
35325;DHT22;35135;47.510;19.036;2022-10-16T05:10:37;22.30;58.80
35325;DHT22;35135;47.510;19.036;2022-10-16T05:13:03;22.30;58.80
35325;DHT22;35135;47.510;19.036;2022-10-16T05:15:28;22.30;58.80
35325;DHT22;35135;47.510;19.036;2022-10-16T05:17:54;22.30;58.80
35325;DHT22;35135;47.510;19.036;2022-10-16T05:20:20;22.30;58.80
35325;DHT22;35135;47.510;19.036;2022-10-16T05:22:46;22.30;58.80
35325;DHT22;35135;47.510;19.036;2022-10-16T05:25:11;22.30;58.80
35325;DHT22;35135;47.510;19.036;2022-10-16T05:27:37;22.30;58.80
35325;DHT22;35135;47.510;19.036;2022-10-16T05:30:02;22.30;58.80
35325;DHT22;35135;47.510;19.036;2022-10-16T05:32:28;22.30;58.80
35325;DHT22;35135;47.510;19.036;2022-10-16T05:34:53;22.30;58.80
35325;DHT22;35135;47.510;19.036;2022-10-16T05:37:19;22.30;58.70
35325;DHT22;35135;47.510;19.036;2022-10-16T05:39:44;22.30;58.70
35325;DHT22;35135;47.510;19.036;2022-10-16T05:42:10;22.30;58.70
35325;DHT22;35135;47.510;19.036;2022-10-16T05:44:35;22.30;58.70
35325;DHT22;35135;47.510;19.036;2022-10-16T05:47:01;22.30;58.70
35325;DHT22;35135;47.510;19.036;2022-10-16T05:49:26;22.30;58.70
35325;DHT22;35135;47.510;19.036;2022-10-16T05:51:52;22.30;58.70
35325;DHT22;35135;47.510;19.036;2022-10-16T05:54:18;22.30;58.70
35325;DHT22;35135;47.510;19.036;2022-10-16T05:56:43;22.30;58.70
35325;DHT22;35135;47.510;19.036;2022-10-16T05:59:09;22.30;58.70
35325;DHT22;35135;47.510;19.036;2022-10-16T06:01:34;22.30;58.70
35325;DHT22;35135;47.510;19.036;2022-10-16T06:04:00;22.30;58.60
35325;DHT22;35135;47.510;19.036;2022-10-16T06:06:26;22.30;58.70
35325;DHT22;35135;47.510;19.036;2022-10-16T06:08:52;22.30;58.70
35325;DHT22;35135;47.510;19.036;2022-10-16T06:11:19;22.30;58.60
35325;DHT22;35135;47.510;19.036;2022-10-16T06:13:48;22.30;58.60
35325;DHT22;35135;47.510;19.036;2022-10-16T06:16:14;22.30;58.60
35325;DHT22;35135;47.510;19.036;2022-10-16T06:18:40;22.30;58.60
35325;DHT22;35135;47.510;19.036;2022-10-16T06:21:09;22.30;58.60
35325;DHT22;35135;47.510;19.036;2022-10-16T06:23:35;22.30;58.60
35325;DHT22;35135;47.510;19.036;2022-10-16T06:26:04;22.30;58.60
35325;DHT22;35135;47.510;19.036;2022-10-16T06:28:29;22.30;58.50
35325;DHT22;35135;47.510;19.036;2022-10-16T06:30:58;22.30;58.50
35325;DHT22;35135;47.510;19.036;2022-10-16T06:33:24;22.30;58.50
35325;DHT22;35135;47.510;19.036;2022-10-16T06:35:49;22.30;58.50
35325;DHT22;35135;47.510;19.036;2022-10-16T06:38:15;22.30;58.50
35325;DHT22;35135;47.510;19.036;2022-10-16T06:40:40;22.30;58.50
35325;DHT22;35135;47.510;19.036;2022-10-16T06:43:06;22.30;58.50
35325;DHT22;35135;47.510;19.036;2022-10-16T06:45:32;22.30;58.50
35325;DHT22;35135;47.510;19.036;2022-10-16T06:47:57;22.30;58.50
35325;DHT22;35135;47.510;19.036;2022-10-16T06:50:23;22.30;58.50
35325;DHT22;35135;47.510;19.036;2022-10-16T06:52:49;22.30;58.50
35325;DHT22;35135;47.510;19.036;2022-10-16T06:55:14;22.40;58.50
35325;DHT22;35135;47.510;19.036;2022-10-16T06:57:40;22.40;58.40
35325;DHT22;35135;47.510;19.036;2022-10-16T07:00:06;22.40;58.40
35325;DHT22;35135;47.510;19.036;2022-10-16T07:02:31;22.50;58.40
35325;DHT22;35135;47.510;19.036;2022-10-16T07:04:57;22.50;58.30
35325;DHT22;35135;47.510;19.036;2022-10-16T07:07:22;22.60;58.30
35325;DHT22;35135;47.510;19.036;2022-10-16T07:09:50;22.60;58.20
35325;DHT22;35135;47.510;19.036;2022-10-16T07:12:15;22.60;58.10
35325;DHT22;35135;47.510;19.036;2022-10-16T07:14:40;22.60;58.10
35325;DHT22;35135;47.510;19.036;2022-10-16T07:17:06;22.70;58.10
35325;DHT22;35135;47.510;19.036;2022-10-16T07:19:31;22.70;58.00
35325;DHT22;35135;47.510;19.036;2022-10-16T07:21:57;22.70;58.00
35325;DHT22;35135;47.510;19.036;2022-10-16T07:24:22;22.70;58.00
35325;DHT22;35135;47.510;19.036;2022-10-16T07:26:48;22.70;57.90
35325;DHT22;35135;47.510;19.036;2022-10-16T07:29:15;22.70;57.90
35325;DHT22;35135;47.510;19.036;2022-10-16T07:31:41;22.70;57.80
35325;DHT22;35135;47.510;19.036;2022-10-16T07:34:10;22.80;57.90
35325;DHT22;35135;47.510;19.036;2022-10-16T07:36:36;22.80;57.90
35325;DHT22;35135;47.510;19.036;2022-10-16T07:39:01;22.80;57.90
35325;DHT22;35135;47.510;19.036;2022-10-16T07:41:27;22.70;57.80
35325;DHT22;35135;47.510;19.036;2022-10-16T07:43:53;22.80;57.80
35325;DHT22;35135;47.510;19.036;2022-10-16T07:46:20;22.80;57.80
35325;DHT22;35135;47.510;19.036;2022-10-16T07:48:46;22.80;57.80
35325;DHT22;35135;47.510;19.036;2022-10-16T07:51:13;22.80;57.70
35325;DHT22;35135;47.510;19.036;2022-10-16T07:53:39;22.80;57.70
35325;DHT22;35135;47.510;19.036;2022-10-16T07:56:05;22.80;57.70
35325;DHT22;35135;47.510;19.036;2022-10-16T07:58:32;22.80;57.70
35325;DHT22;35135;47.510;19.036;2022-10-16T08:00:58;22.80;57.70
35325;DHT22;35135;47.510;19.036;2022-10-16T08:03:24;22.80;57.70
35325;DHT22;35135;47.510;19.036;2022-10-16T08:05:49;22.80;57.70
35325;DHT22;35135;47.510;19.036;2022-10-16T08:08:15;22.80;57.70
35325;DHT22;35135;47.510;19.036;2022-10-16T08:10:42;22.80;57.70
35325;DHT22;35135;47.510;19.036;2022-10-16T08:13:07;22.80;57.70
35325;DHT22;35135;47.510;19.036;2022-10-16T08:15:33;22.80;57.70
35325;DHT22;35135;47.510;19.036;2022-10-16T08:18:02;22.80;57.60
35325;DHT22;35135;47.510;19.036;2022-10-16T08:20:28;22.80;57.70
35325;DHT22;35135;47.510;19.036;2022-10-16T08:22:54;22.80;57.70
35325;DHT22;35135;47.510;19.036;2022-10-16T08:25:20;22.70;57.70
35325;DHT22;35135;47.510;19.036;2022-10-16T08:27:46;22.70;57.70
35325;DHT22;35135;47.510;19.036;2022-10-16T08:30:12;22.80;57.70
35325;DHT22;35135;47.510;19.036;2022-10-16T08:32:37;22.80;57.70
35325;DHT22;35135;47.510;19.036;2022-10-16T08:35:03;22.70;57.70
35325;DHT22;35135;47.510;19.036;2022-10-16T08:37:31;22.70;57.70
35325;DHT22;35135;47.510;19.036;2022-10-16T08:39:57;22.70;57.70
35325;DHT22;35135;47.510;19.036;2022-10-16T08:42:28;22.80;57.70
35325;DHT22;35135;47.510;19.036;2022-10-16T08:50:13;22.70;57.70
35325;DHT22;35135;47.510;19.036;2022-10-16T08:52:40;22.70;57.80
35325;DHT22;35135;47.510;19.036;2022-10-16T08:55:06;22.70;57.70
35325;DHT22;35135;47.510;19.036;2022-10-16T08:57:32;22.70;57.70
35325;DHT22;35135;47.510;19.036;2022-10-16T08:59:59;22.70;57.80
35325;DHT22;35135;47.510;19.036;2022-10-16T09:02:29;22.70;57.80
35325;DHT22;35135;47.510;19.036;2022-10-16T09:12:37;22.60;57.70
35325;DHT22;35135;47.510;19.036;2022-10-16T09:22:30;22.70;57.80
35325;DHT22;35135;47.510;19.036;2022-10-16T09:24:59;22.70;57.90
35325;DHT22;35135;47.510;19.036;2022-10-16T09:27:25;22.60;58.00
35325;DHT22;35135;47.510;19.036;2022-10-16T09:29:51;22.60;58.00
35325;DHT22;35135;47.510;19.036;2022-10-16T09:32:19;22.60;58.10
35325;DHT22;35135;47.510;19.036;2022-10-16T09:34:47;22.60;58.30
35325;DHT22;35135;47.510;19.036;2022-10-16T09:37:14;22.60;58.50
35325;DHT22;35135;47.510;19.036;2022-10-16T09:39:49;22.60;58.60
35325;DHT22;35135;47.510;19.036;2022-10-16T09:42:16;22.60;58.60
35325;DHT22;35135;47.510;19.036;2022-10-16T09:44:41;22.60;58.80
35325;DHT22;35135;47.510;19.036;2022-10-16T09:47:18;22.60;59.00
35325;DHT22;35135;47.510;19.036;2022-10-16T09:49:55;22.60;59.30
35325;DHT22;35135;47.510;19.036;2022-10-16T09:52:22;22.60;59.50
35325;DHT22;35135;47.510;19.036;2022-10-16T09:54:48;22.60;59.80
35325;DHT22;35135;47.510;19.036;2022-10-16T09:57:14;22.70;60.20
35325;DHT22;35135;47.510;19.036;2022-10-16T09:59:47;22.70;60.50
35325;DHT22;35135;47.510;19.036;2022-10-16T10:02:13;22.70;61.20
35325;DHT22;35135;47.510;19.036;2022-10-16T10:04:52;22.70;61.10
35325;DHT22;35135;47.510;19.036;2022-10-16T10:07:24;22.70;61.20
35325;DHT22;35135;47.510;19.036;2022-10-16T10:09:50;22.70;61.30
35325;DHT22;35135;47.510;19.036;2022-10-16T10:12:26;22.70;61.30
35325;DHT22;35135;47.510;19.036;2022-10-16T10:14:53;22.70;61.20
35325;DHT22;35135;47.510;19.036;2022-10-16T10:24:41;22.70;61.20
35325;DHT22;35135;47.510;19.036;2022-10-16T10:27:09;22.70;61.40
35325;DHT22;35135;47.510;19.036;2022-10-16T10:32:11;22.70;61.10
35325;DHT22;35135;47.510;19.036;2022-10-16T10:34:54;22.70;61.00
35325;DHT22;35135;47.510;19.036;2022-10-16T10:39:51;22.70;60.80
35325;DHT22;35135;47.510;19.036;2022-10-16T10:42:25;22.70;60.80
35325;DHT22;35135;47.510;19.036;2022-10-16T10:45:12;22.70;60.80
35325;DHT22;35135;47.510;19.036;2022-10-16T10:47:43;22.70;60.70
35325;DHT22;35135;47.510;19.036;2022-10-16T10:50:14;22.70;60.70
35325;DHT22;35135;47.510;19.036;2022-10-16T11:02:48;22.70;60.50
35325;DHT22;35135;47.510;19.036;2022-10-16T11:08:02;22.70;60.60
35325;DHT22;35135;47.510;19.036;2022-10-16T11:10:34;22.70;60.70
35325;DHT22;35135;47.510;19.036;2022-10-16T11:15:35;22.70;60.50
35325;DHT22;35135;47.510;19.036;2022-10-16T11:20:32;22.70;60.50
35325;DHT22;35135;47.510;19.036;2022-10-16T11:23:00;22.70;60.30
35325;DHT22;35135;47.510;19.036;2022-10-16T11:25:30;22.70;60.40
35325;DHT22;35135;47.510;19.036;2022-10-16T11:27:59;22.70;60.90
35325;DHT22;35135;47.510;19.036;2022-10-16T11:30:27;22.70;60.20
35325;DHT22;35135;47.510;19.036;2022-10-16T11:35:39;22.70;60.10
35325;DHT22;35135;47.510;19.036;2022-10-16T11:38:15;22.80;60.20
35325;DHT22;35135;47.510;19.036;2022-10-16T11:40:45;22.80;60.20
35325;DHT22;35135;47.510;19.036;2022-10-16T11:43:24;22.70;60.00
35325;DHT22;35135;47.510;19.036;2022-10-16T11:45:57;22.80;60.00
35325;DHT22;35135;47.510;19.036;2022-10-16T11:50:50;22.80;60.00
35325;DHT22;35135;47.510;19.036;2022-10-16T11:56:03;22.80;59.90
35325;DHT22;35135;47.510;19.036;2022-10-16T11:58:30;22.80;59.90
35325;DHT22;35135;47.510;19.036;2022-10-16T12:01:41;22.80;59.90
35325;DHT22;35135;47.510;19.036;2022-10-16T12:08:53;22.80;59.80
35325;DHT22;35135;47.510;19.036;2022-10-16T12:11:22;22.80;59.80
35325;DHT22;35135;47.510;19.036;2022-10-16T12:13:48;22.80;59.80
35325;DHT22;35135;47.510;19.036;2022-10-16T12:18:40;22.80;59.70
35325;DHT22;35135;47.510;19.036;2022-10-16T12:21:06;22.80;59.70
35325;DHT22;35135;47.510;19.036;2022-10-16T12:23:33;22.80;59.60
35325;DHT22;35135;47.510;19.036;2022-10-16T12:26:01;22.80;59.60
35325;DHT22;35135;47.510;19.036;2022-10-16T12:28:31;22.80;59.70
35325;DHT22;35135;47.510;19.036;2022-10-16T12:30:59;22.80;59.70
35325;DHT22;35135;47.510;19.036;2022-10-16T12:33:25;22.80;59.70
35325;DHT22;35135;47.510;19.036;2022-10-16T12:35:52;22.80;59.70
35325;DHT22;35135;47.510;19.036;2022-10-16T12:38:24;22.80;59.70
35325;DHT22;35135;47.510;19.036;2022-10-16T12:40:55;22.80;59.60
35325;DHT22;35135;47.510;19.036;2022-10-16T12:43:25;22.80;59.60
35325;DHT22;35135;47.510;19.036;2022-10-16T12:46:04;22.90;59.70
35325;DHT22;35135;47.510;19.036;2022-10-16T12:48:30;22.80;59.60
35325;DHT22;35135;47.510;19.036;2022-10-16T12:50:56;22.80;59.60
35325;DHT22;35135;47.510;19.036;2022-10-16T12:53:25;22.80;59.70
35325;DHT22;35135;47.510;19.036;2022-10-16T12:58:33;22.80;59.60
35325;DHT22;35135;47.510;19.036;2022-10-16T13:01:07;22.80;59.60
35325;DHT22;35135;47.510;19.036;2022-10-16T13:06:14;22.80;60.20
35325;DHT22;35135;47.510;19.036;2022-10-16T13:16:50;22.90;59.60
35325;DHT22;35135;47.510;19.036;2022-10-16T13:29:36;22.90;59.40
35325;DHT22;35135;47.510;19.036;2022-10-16T13:32:07;22.90;59.40
35325;DHT22;35135;47.510;19.036;2022-10-16T13:34:33;22.90;59.40
35325;DHT22;35135;47.510;19.036;2022-10-16T13:37:15;22.90;59.30
35325;DHT22;35135;47.510;19.036;2022-10-16T13:39:41;22.90;59.30
35325;DHT22;35135;47.510;19.036;2022-10-16T13:42:21;22.90;59.30
35325;DHT22;35135;47.510;19.036;2022-10-16T13:44:49;22.90;59.30
35325;DHT22;35135;47.510;19.036;2022-10-16T13:47:19;22.90;59.30
35325;DHT22;35135;47.510;19.036;2022-10-16T13:49:45;22.90;59.20
35325;DHT22;35135;47.510;19.036;2022-10-16T13:52:18;22.90;59.30
35325;DHT22;35135;47.510;19.036;2022-10-16T13:54:44;22.90;59.30
35325;DHT22;35135;47.510;19.036;2022-10-16T13:57:12;22.90;59.30
35325;DHT22;35135;47.510;19.036;2022-10-16T13:59:38;22.90;59.30
35325;DHT22;35135;47.510;19.036;2022-10-16T14:02:08;22.90;59.30
35325;DHT22;35135;47.510;19.036;2022-10-16T14:04:34;22.90;59.30
35325;DHT22;35135;47.510;19.036;2022-10-16T14:07:03;22.90;59.30
35325;DHT22;35135;47.510;19.036;2022-10-16T14:09:29;22.90;59.30
35325;DHT22;35135;47.510;19.036;2022-10-16T14:12:00;22.90;59.30
35325;DHT22;35135;47.510;19.036;2022-10-16T14:17:13;22.90;59.30
35325;DHT22;35135;47.510;19.036;2022-10-16T14:19:39;22.90;59.20
35325;DHT22;35135;47.510;19.036;2022-10-16T14:22:11;22.90;59.20
35325;DHT22;35135;47.510;19.036;2022-10-16T14:24:42;22.90;59.20
35325;DHT22;35135;47.510;19.036;2022-10-16T14:27:23;22.90;59.30
35325;DHT22;35135;47.510;19.036;2022-10-16T14:29:49;22.90;59.20
35325;DHT22;35135;47.510;19.036;2022-10-16T14:32:22;22.80;59.20
35325;DHT22;35135;47.510;19.036;2022-10-16T14:34:52;22.90;59.20
35325;DHT22;35135;47.510;19.036;2022-10-16T14:37:22;22.90;59.30
35325;DHT22;35135;47.510;19.036;2022-10-16T14:39:49;22.90;59.20
35325;DHT22;35135;47.510;19.036;2022-10-16T14:42:16;22.90;59.30
35325;DHT22;35135;47.510;19.036;2022-10-16T14:44:42;22.90;59.20
35325;DHT22;35135;47.510;19.036;2022-10-16T14:47:13;22.80;59.20
35325;DHT22;35135;47.510;19.036;2022-10-16T14:49:39;22.80;59.10
35325;DHT22;35135;47.510;19.036;2022-10-16T14:52:14;22.90;59.20
35325;DHT22;35135;47.510;19.036;2022-10-16T14:54:39;22.90;59.10
35325;DHT22;35135;47.510;19.036;2022-10-16T14:57:05;22.90;59.10
35325;DHT22;35135;47.510;19.036;2022-10-16T14:59:35;22.90;59.10
35325;DHT22;35135;47.510;19.036;2022-10-16T15:04:49;22.90;59.10
35325;DHT22;35135;47.510;19.036;2022-10-16T15:07:15;22.90;59.10
35325;DHT22;35135;47.510;19.036;2022-10-16T15:09:41;22.90;59.10
35325;DHT22;35135;47.510;19.036;2022-10-16T15:12:06;22.80;59.00
35325;DHT22;35135;47.510;19.036;2022-10-16T15:14:32;22.90;59.00
35325;DHT22;35135;47.510;19.036;2022-10-16T15:16:57;22.90;59.00
35325;DHT22;35135;47.510;19.036;2022-10-16T15:19:23;22.80;59.00
35325;DHT22;35135;47.510;19.036;2022-10-16T15:21:48;22.80;59.00
35325;DHT22;35135;47.510;19.036;2022-10-16T15:24:14;22.80;59.00
35325;DHT22;35135;47.510;19.036;2022-10-16T15:26:40;22.80;58.90
35325;DHT22;35135;47.510;19.036;2022-10-16T15:29:06;22.80;58.90
35325;DHT22;35135;47.510;19.036;2022-10-16T15:31:31;22.80;58.90
35325;DHT22;35135;47.510;19.036;2022-10-16T15:33:57;22.80;58.90
35325;DHT22;35135;47.510;19.036;2022-10-16T15:36:32;22.80;58.90
35325;DHT22;35135;47.510;19.036;2022-10-16T15:39:19;22.80;58.90
35325;DHT22;35135;47.510;19.036;2022-10-16T15:41:48;22.80;58.90
35325;DHT22;35135;47.510;19.036;2022-10-16T15:44:18;22.80;58.90
35325;DHT22;35135;47.510;19.036;2022-10-16T15:46:44;22.80;58.90
35325;DHT22;35135;47.510;19.036;2022-10-16T15:49:09;22.80;58.90
35325;DHT22;35135;47.510;19.036;2022-10-16T15:51:37;22.80;58.90
35325;DHT22;35135;47.510;19.036;2022-10-16T15:54:03;22.80;58.90
35325;DHT22;35135;47.510;19.036;2022-10-16T15:56:28;22.80;58.90
35325;DHT22;35135;47.510;19.036;2022-10-16T15:58:54;22.80;59.00
35325;DHT22;35135;47.510;19.036;2022-10-16T16:01:20;22.80;59.00
35325;DHT22;35135;47.510;19.036;2022-10-16T16:03:46;22.80;59.10
35325;DHT22;35135;47.510;19.036;2022-10-16T16:06:12;22.80;59.10
35325;DHT22;35135;47.510;19.036;2022-10-16T16:08:38;22.80;59.10
35325;DHT22;35135;47.510;19.036;2022-10-16T16:11:05;22.80;59.10
35325;DHT22;35135;47.510;19.036;2022-10-16T16:13:31;22.70;59.10
35325;DHT22;35135;47.510;19.036;2022-10-16T16:15:57;22.80;59.20
35325;DHT22;35135;47.510;19.036;2022-10-16T16:18:22;22.80;59.20
35325;DHT22;35135;47.510;19.036;2022-10-16T16:20:49;22.80;59.20
35325;DHT22;35135;47.510;19.036;2022-10-16T16:23:15;22.80;59.30
35325;DHT22;35135;47.510;19.036;2022-10-16T16:25:40;22.80;59.40
35325;DHT22;35135;47.510;19.036;2022-10-16T16:28:06;22.80;59.50
35325;DHT22;35135;47.510;19.036;2022-10-16T16:30:32;22.70;59.40
35325;DHT22;35135;47.510;19.036;2022-10-16T16:32:58;22.80;59.40
35325;DHT22;35135;47.510;19.036;2022-10-16T16:35:23;22.80;59.40
35325;DHT22;35135;47.510;19.036;2022-10-16T16:37:49;22.80;59.40
35325;DHT22;35135;47.510;19.036;2022-10-16T16:40:14;22.80;59.40
35325;DHT22;35135;47.510;19.036;2022-10-16T16:42:40;22.80;59.40
35325;DHT22;35135;47.510;19.036;2022-10-16T16:45:05;22.80;59.50
35325;DHT22;35135;47.510;19.036;2022-10-16T16:47:31;22.80;59.40
35325;DHT22;35135;47.510;19.036;2022-10-16T16:49:57;22.80;59.40
35325;DHT22;35135;47.510;19.036;2022-10-16T16:52:22;22.80;59.40
35325;DHT22;35135;47.510;19.036;2022-10-16T16:54:48;22.80;59.40
35325;DHT22;35135;47.510;19.036;2022-10-16T16:57:19;22.80;59.40
35325;DHT22;35135;47.510;19.036;2022-10-16T16:59:45;22.80;59.40
35325;DHT22;35135;47.510;19.036;2022-10-16T17:02:11;22.90;59.40
35325;DHT22;35135;47.510;19.036;2022-10-16T17:04:36;22.80;59.30
35325;DHT22;35135;47.510;19.036;2022-10-16T17:07:02;22.90;59.30
35325;DHT22;35135;47.510;19.036;2022-10-16T17:09:27;22.80;59.30